Time;durP1;ratioP1;P1;durP2;ratioP2;P2;SDS_P1;SDS_P2;PMS_P1;PMS_P2;Temp;Humidity;BMP_temperature;BMP_pressure;BME280_temperature;BME280_humidity;BME280_pressure;Samples;Min_cycle;Max_cycle;Signal;HPM_P1;HPM_P2
2022/06/08 00:00:44;;;;;;;34.33;23.43;;;;;;;;;;4973533;28;20491;-52
2022/06/08 00:03:12;;;;;;;31.77;21.67;;;;;;;;;;4973860;28;20567;-52
2022/06/08 00:05:38;;;;;;;32.70;21.30;;;;;;;;;;4973749;28;20399;-52
2022/06/08 00:08:04;;;;;;;26.30;20.10;;;;;;;;;;4973740;28;20397;-51
2022/06/08 00:10:30;;;;;;;26.87;20.10;;;;;;;;;;4973388;28;20387;-52
2022/06/08 00:12:56;;;;;;;29.37;21.97;;;;;;;;;;4973677;28;20444;-52
2022/06/08 00:15:22;;;;;;;30.10;21.20;;;;;;;;;;4973515;28;20444;-51
2022/06/08 00:17:48;;;;;;;35.10;23.03;;;;;;;;;;4973514;28;20886;-52
2022/06/08 00:20:14;;;;;;;37.10;22.97;;;;;;;;;;4973263;28;20463;-53
2022/06/08 00:22:41;;;;;;;39.03;23.70;;;;;;;;;;4973079;28;20463;-51
2022/06/08 00:25:08;;;;;;;33.23;22.80;;;;;;;;;;4973578;28;20411;-52
2022/06/08 00:27:34;;;;;;;37.37;25.20;;;;;;;;;;4973364;28;20376;-51
2022/06/08 00:30:00;;;;;;;34.47;23.17;;;;;;;;;;4973412;28;20905;-51
2022/06/08 00:32:26;;;;;;;36.43;22.90;;;;;;;;;;4973047;28;20508;-52
2022/06/08 00:34:52;;;;;;;31.30;22.10;;;;;;;;;;4973363;28;20858;-52
2022/06/08 00:37:19;;;;;;;35.90;23.93;;;;;;;;;;4973307;28;20504;-52
2022/06/08 00:39:45;;;;;;;33.10;22.93;;;;;;;;;;4973239;28;20463;-51
2022/06/08 00:42:13;;;;;;;31.80;22.70;;;;;;;;;;4972951;28;20425;-52
2022/06/08 00:44:51;;;;;;;35.83;23.70;;;;;;;;;;4973236;28;20459;-52
2022/06/08 00:47:19;;;;;;;34.77;22.20;;;;;;;;;;4973178;28;20408;-51
2022/06/08 00:49:51;;;;;;;33.40;22.50;;;;;;;;;;4973121;28;20896;-52
2022/06/08 00:52:18;;;;;;;31.73;23.37;;;;;;;;;;4972607;28;20450;-53
2022/06/08 00:54:47;;;;;;;30.80;22.13;;;;;;;;;;4973064;28;20429;-52
2022/06/08 00:57:21;;;;;;;34.40;23.70;;;;;;;;;;4973171;28;20407;-52
2022/06/08 00:59:49;;;;;;;34.27;22.47;;;;;;;;;;4973024;28;20461;-51
2022/06/08 01:02:15;;;;;;;37.00;23.80;;;;;;;;;;4972404;28;20428;-52
2022/06/08 01:04:41;;;;;;;34.20;22.30;;;;;;;;;;4972459;28;20396;-52
2022/06/08 01:07:07;;;;;;;42.23;26.07;;;;;;;;;;4973176;28;20895;-51
2022/06/08 01:09:35;;;;;;;38.63;25.50;;;;;;;;;;4972892;28;20411;-51
2022/06/08 01:12:04;;;;;;;35.00;24.73;;;;;;;;;;4972671;28;20875;-52
2022/06/08 01:14:30;;;;;;;34.47;23.30;;;;;;;;;;4972906;28;20409;-51
2022/06/08 01:17:09;;;;;;;38.10;23.37;;;;;;;;;;4972945;28;20946;-51
2022/06/08 01:19:37;;;;;;;38.70;24.83;;;;;;;;;;4972774;28;20499;-52
2022/06/08 01:22:04;;;;;;;32.87;24.80;;;;;;;;;;4972628;28;21028;-51
2022/06/08 01:24:30;;;;;;;33.53;21.57;;;;;;;;;;4973025;28;20412;-52
2022/06/08 01:26:56;;;;;;;36.80;22.47;;;;;;;;;;4973044;28;20484;-52
2022/06/08 01:29:31;;;;;;;37.80;23.13;;;;;;;;;;4972720;28;20829;-52
2022/06/08 01:32:00;;;;;;;36.27;25.17;;;;;;;;;;4972604;28;20446;-51
2022/06/08 01:34:32;;;;;;;31.97;23.30;;;;;;;;;;4973884;28;20501;-52
2022/06/08 01:37:17;;;;;;;32.87;21.70;;;;;;;;;;4976548;28;20504;-51
2022/06/08 01:40:01;;;;;;;34.60;22.10;;;;;;;;;;4976408;28;20434;-52
2022/06/08 01:42:27;;;;;;;34.10;21.77;;;;;;;;;;4976292;28;20391;-52
2022/06/08 01:45:31;;;;;;;36.30;23.43;;;;;;;;;;4976547;28;20737;-52
2022/06/08 01:48:01;;;;;;;36.10;24.50;;;;;;;;;;4976521;28;20405;-53
2022/06/08 01:50:35;;;;;;;34.37;22.17;;;;;;;;;;4976196;28;20897;-52
2022/06/08 01:53:17;;;;;;;33.80;22.00;;;;;;;;;;4976123;28;20449;-52
2022/06/08 01:55:49;;;;;;;34.47;23.67;;;;;;;;;;4976195;28;20412;-52
2022/06/08 01:58:22;;;;;;;36.77;23.10;;;;;;;;;;4976515;28;20410;-51
2022/06/08 02:01:09;;;;;;;34.10;21.10;;;;;;;;;;4975813;28;20460;-52
2022/06/08 02:03:39;;;;;;;36.77;23.40;;;;;;;;;;4975995;28;20420;-52
2022/06/08 02:06:20;;;;;;;39.17;22.97;;;;;;;;;;4975992;28;20412;-52
2022/06/08 02:09:00;;;;;;;39.03;23.10;;;;;;;;;;4974693;28;20512;-52
2022/06/08 02:11:33;;;;;;;37.37;23.53;;;;;;;;;;4975527;28;20425;-52
2022/06/08 02:14:02;;;;;;;35.10;21.63;;;;;;;;;;4975966;28;20400;-52
2022/06/08 02:16:34;;;;;;;36.70;23.50;;;;;;;;;;4975671;28;20418;-51
2022/06/08 02:19:11;;;;;;;41.77;23.13;;;;;;;;;;4975580;28;20473;-52
2022/06/08 02:22:07;;;;;;;41.43;24.80;;;;;;;;;;4975430;28;20429;-52
2022/06/08 02:24:56;;;;;;;38.63;22.57;;;;;;;;;;4963273;28;20428;-52
2022/06/08 02:27:26;;;;;;;40.43;21.63;;;;;;;;;;4948347;28;20905;-51
2022/06/08 02:29:57;;;;;;;36.43;22.83;;;;;;;;;;4975454;28;20414;-52
2022/06/08 02:35:19;;;;;;;33.23;21.20;;;;;;;;;;4975558;28;20445;-52
2022/06/08 02:37:48;;;;;;;33.80;22.83;;;;;;;;;;4975429;28;20386;-51
2022/06/08 02:40:17;;;;;;;41.80;22.27;;;;;;;;;;4975116;28;20447;-52
2022/06/08 02:42:47;;;;;;;33.63;20.87;;;;;;;;;;4975207;28;20403;-52
2022/06/08 02:45:15;;;;;;;35.07;22.40;;;;;;;;;;4975111;28;20750;-51
2022/06/08 02:47:42;;;;;;;35.30;21.10;;;;;;;;;;4975205;28;20417;-52
2022/06/08 02:50:14;;;;;;;30.60;21.43;;;;;;;;;;4975088;28;20475;-51
2022/06/08 02:52:42;;;;;;;36.53;20.50;;;;;;;;;;4974603;28;20935;-52
2022/06/08 02:55:25;;;;;;;32.20;22.17;;;;;;;;;;4975146;28;20933;-53
2022/06/08 02:57:56;;;;;;;35.33;21.33;;;;;;;;;;4975166;28;20416;-52
2022/06/08 03:00:27;;;;;;;34.60;22.13;;;;;;;;;;4974724;28;20440;-52
2022/06/08 03:02:59;;;;;;;36.73;22.60;;;;;;;;;;4975011;28;20399;-52
2022/06/08 03:05:28;;;;;;;35.83;22.27;;;;;;;;;;4974917;28;20405;-52
2022/06/08 03:07:59;;;;;;;37.03;22.57;;;;;;;;;;4974907;28;20403;-52
2022/06/08 03:10:27;;;;;;;36.00;21.03;;;;;;;;;;4974537;28;20400;-51
2022/06/08 03:13:03;;;;;;;35.97;22.53;;;;;;;;;;4974759;28;20399;-52
2022/06/08 03:15:29;;;;;;;34.37;20.53;;;;;;;;;;4974809;28;20377;-52
2022/06/08 03:17:55;;;;;;;32.90;20.90;;;;;;;;;;4974710;28;20758;-52
2022/06/08 03:20:22;;;;;;;30.90;19.63;;;;;;;;;;4974507;28;20438;-51
2022/06/08 03:22:48;;;;;;;33.93;18.80;;;;;;;;;;4974597;28;20478;-53
2022/06/08 03:25:15;;;;;;;38.37;21.73;;;;;;;;;;4974772;28;20411;-52
2022/06/08 03:27:43;;;;;;;31.60;18.40;;;;;;;;;;4974505;28;20484;-52
2022/06/08 03:30:09;;;;;;;36.50;21.87;;;;;;;;;;4974352;28;20383;-52
2022/06/08 03:32:35;;;;;;;30.40;21.00;;;;;;;;;;4974134;28;20463;-52
2022/06/08 03:35:02;;;;;;;30.00;19.70;;;;;;;;;;4974642;28;20448;-52
2022/06/08 03:37:28;;;;;;;32.10;20.30;;;;;;;;;;4974237;28;20833;-52
2022/06/08 03:39:54;;;;;;;35.23;19.27;;;;;;;;;;4974078;28;20494;-53
2022/06/08 03:42:20;;;;;;;29.30;18.77;;;;;;;;;;4973943;28;20436;-52
2022/06/08 03:44:46;;;;;;;29.80;18.03;;;;;;;;;;4974135;28;20401;-52
2022/06/08 03:47:16;;;;;;;28.23;18.63;;;;;;;;;;4974121;28;20887;-52
2022/06/08 03:49:42;;;;;;;27.53;17.70;;;;;;;;;;4974289;28;20380;-52
2022/06/08 03:52:11;;;;;;;23.33;16.50;;;;;;;;;;4973998;28;20429;-52
2022/06/08 03:54:38;;;;;;;29.30;17.80;;;;;;;;;;4973757;28;20428;-52
2022/06/08 03:57:08;;;;;;;23.00;16.60;;;;;;;;;;4973366;28;20755;-52
2022/06/08 03:59:34;;;;;;;33.67;19.90;;;;;;;;;;4973768;28;20544;-52
2022/06/08 04:02:00;;;;;;;26.57;17.07;;;;;;;;;;4973500;28;20429;-52
2022/06/08 04:04:26;;;;;;;26.20;17.30;;;;;;;;;;4973910;28;20444;-51
2022/06/08 04:06:52;;;;;;;26.83;17.27;;;;;;;;;;4973843;28;20458;-51
2022/06/08 04:09:18;;;;;;;24.83;17.90;;;;;;;;;;4973676;28;20503;-52
2022/06/08 04:11:44;;;;;;;25.53;16.87;;;;;;;;;;4973458;28;20435;-52
2022/06/08 04:14:10;;;;;;;23.23;16.07;;;;;;;;;;4973754;28;20444;-51
2022/06/08 04:16:36;;;;;;;23.10;15.23;;;;;;;;;;4973635;28;20401;-52
2022/06/08 04:19:02;;;;;;;21.87;15.53;;;;;;;;;;4973611;28;20455;-51
2022/06/08 04:21:28;;;;;;;21.83;14.70;;;;;;;;;;4973267;28;20428;-52
2022/06/08 04:23:54;;;;;;;21.20;14.77;;;;;;;;;;4974890;28;20417;-51
2022/06/08 04:26:21;;;;;;;21.27;15.30;;;;;;;;;;4971468;28;20407;-52
2022/06/08 04:28:47;;;;;;;19.53;14.43;;;;;;;;;;4992724;28;20412;-52
2022/06/08 04:31:14;;;;;;;17.57;12.63;;;;;;;;;;4973197;28;20423;-51
2022/06/08 04:33:40;;;;;;;21.80;13.53;;;;;;;;;;4973556;28;20398;-52
2022/06/08 04:36:07;;;;;;;18.30;12.70;;;;;;;;;;4972959;28;20897;-51
2022/06/08 04:38:33;;;;;;;17.27;12.40;;;;;;;;;;4973245;28;20389;-51
2022/06/08 04:41:00;;;;;;;17.33;13.80;;;;;;;;;;4972416;28;20445;-51
2022/06/08 04:43:26;;;;;;;19.57;13.47;;;;;;;;;;4972886;28;20402;-51
2022/06/08 04:45:52;;;;;;;18.73;11.43;;;;;;;;;;4972726;28;20408;-52
2022/06/08 04:48:19;;;;;;;13.77;11.40;;;;;;;;;;4973126;28;20406;-51
2022/06/08 04:50:46;;;;;;;13.17;8.97;;;;;;;;;;4972733;28;20420;-52
2022/06/08 04:53:12;;;;;;;8.83;7.93;;;;;;;;;;4972997;28;20412;-51
2022/06/08 04:55:38;;;;;;;12.90;9.00;;;;;;;;;;4973163;28;20474;-51
2022/06/08 04:58:04;;;;;;;12.50;8.87;;;;;;;;;;4973336;28;20412;-52
2022/06/08 05:00:30;;;;;;;11.47;8.50;;;;;;;;;;4973469;28;20451;-52
2022/06/08 05:02:56;;;;;;;10.57;9.47;;;;;;;;;;4973045;28;20386;-52
2022/06/08 05:05:22;;;;;;;9.70;8.63;;;;;;;;;;4973096;28;20488;-52
2022/06/08 05:07:49;;;;;;;15.10;8.20;;;;;;;;;;4973145;28;20520;-52
2022/06/08 05:10:15;;;;;;;9.70;8.47;;;;;;;;;;4976826;28;20376;-53
2022/06/08 05:12:41;;;;;;;11.23;7.80;;;;;;;;;;4976855;28;20440;-52
2022/06/08 05:15:09;;;;;;;8.47;7.57;;;;;;;;;;4977166;28;20392;-53
2022/06/08 05:17:35;;;;;;;10.40;8.23;;;;;;;;;;4976989;28;20448;-52
2022/06/08 05:20:01;;;;;;;9.97;7.97;;;;;;;;;;4976676;28;20480;-52
2022/06/08 05:22:27;;;;;;;7.80;7.00;;;;;;;;;;4976541;28;20404;-52
2022/06/08 05:24:54;;;;;;;8.87;7.30;;;;;;;;;;4976720;28;20397;-52
2022/06/08 05:27:20;;;;;;;12.50;8.70;;;;;;;;;;4976811;28;20396;-52
2022/06/08 05:29:46;;;;;;;8.67;6.90;;;;;;;;;;4976654;28;20420;-52
2022/06/08 05:32:12;;;;;;;7.57;6.33;;;;;;;;;;4976400;28;20470;-52
2022/06/08 05:34:38;;;;;;;9.00;5.97;;;;;;;;;;4976677;28;20388;-52
2022/06/08 05:37:04;;;;;;;10.27;6.47;;;;;;;;;;4976517;28;20388;-52
2022/06/08 05:39:30;;;;;;;7.37;6.67;;;;;;;;;;4976707;28;20439;-52
2022/06/08 05:41:56;;;;;;;6.90;6.00;;;;;;;;;;4976175;28;20504;-52
2022/06/08 05:44:22;;;;;;;6.00;5.40;;;;;;;;;;4976413;28;20499;-52
2022/06/08 05:46:50;;;;;;;5.37;4.93;;;;;;;;;;4976396;28;20388;-51
2022/06/08 05:49:16;;;;;;;7.13;5.37;;;;;;;;;;4976360;28;20406;-52
2022/06/08 05:51:42;;;;;;;9.57;5.67;;;;;;;;;;4975898;28;20426;-52
2022/06/08 05:54:08;;;;;;;5.10;4.40;;;;;;;;;;4974214;28;20447;-53
2022/06/08 05:56:34;;;;;;;4.90;4.40;;;;;;;;;;4969524;28;20388;-52
2022/06/08 05:59:01;;;;;;;4.73;4.37;;;;;;;;;;4972978;28;20429;-52
2022/06/08 06:01:27;;;;;;;7.97;3.90;;;;;;;;;;4974422;28;20429;-52
2022/06/08 06:03:53;;;;;;;4.43;4.13;;;;;;;;;;4975363;28;20494;-52
2022/06/08 06:06:19;;;;;;;9.77;3.97;;;;;;;;;;4975177;28;20977;-52
2022/06/08 06:08:45;;;;;;;4.83;4.20;;;;;;;;;;4974994;28;20440;-52
2022/06/08 06:11:13;;;;;;;3.60;3.40;;;;;;;;;;4974896;28;20409;-52
2022/06/08 06:13:39;;;;;;;6.40;3.60;;;;;;;;;;4982745;28;20761;-52
2022/06/08 06:16:05;;;;;;;4.33;3.17;;;;;;;;;;4983575;28;20441;-53
2022/06/08 06:18:31;;;;;;;4.20;3.10;;;;;;;;;;4994263;28;20382;-52
2022/06/08 06:20:57;;;;;;;5.80;3.67;;;;;;;;;;4993684;28;20992;-52
2022/06/08 06:23:25;;;;;;;4.20;3.20;;;;;;;;;;4994452;28;20396;-52
2022/06/08 06:25:51;;;;;;;4.07;3.60;;;;;;;;;;4988261;28;20405;-53
2022/06/08 06:28:17;;;;;;;5.10;3.17;;;;;;;;;;4985012;28;20873;-52
2022/06/08 06:30:43;;;;;;;6.90;2.87;;;;;;;;;;4993875;28;20447;-53
2022/06/08 06:33:11;;;;;;;4.90;3.73;;;;;;;;;;4994523;28;20400;-53
2022/06/08 06:35:36;;;;;;;3.50;3.30;;;;;;;;;;4993893;28;20501;-52
2022/06/08 06:38:03;;;;;;;4.60;3.50;;;;;;;;;;4994098;28;20531;-52
2022/06/08 06:40:29;;;;;;;3.53;3.30;;;;;;;;;;4991710;28;20458;-53
2022/06/08 06:42:55;;;;;;;3.07;2.87;;;;;;;;;;4990242;28;20418;-53
2022/06/08 06:45:21;;;;;;;5.97;2.93;;;;;;;;;;4993507;28;20438;-52
2022/06/08 06:47:47;;;;;;;2.40;2.20;;;;;;;;;;4994133;28;20457;-52
2022/06/08 06:50:15;;;;;;;2.57;2.47;;;;;;;;;;4993910;28;20954;-52
2022/06/08 06:52:41;;;;;;;2.90;2.70;;;;;;;;;;4975904;28;20439;-52
2022/06/08 06:55:07;;;;;;;3.80;2.67;;;;;;;;;;4982822;28;20682;-52
2022/06/08 06:57:33;;;;;;;3.23;2.73;;;;;;;;;;4974368;28;20421;-52
2022/06/08 06:59:59;;;;;;;3.77;2.80;;;;;;;;;;4974176;28;20463;-53
2022/06/08 07:02:26;;;;;;;4.13;2.60;;;;;;;;;;4973817;28;20421;-53
2022/06/08 07:04:52;;;;;;;3.00;2.70;;;;;;;;;;4974104;28;20481;-52
2022/06/08 07:07:18;;;;;;;3.13;2.73;;;;;;;;;;4974194;28;20488;-52
2022/06/08 07:09:44;;;;;;;2.53;2.33;;;;;;;;;;4974110;28;20500;-53
2022/06/08 07:12:12;;;;;;;2.50;2.10;;;;;;;;;;4973944;28;20431;-53
2022/06/08 07:14:38;;;;;;;2.40;2.20;;;;;;;;;;4973845;28;20413;-53
2022/06/08 07:17:04;;;;;;;2.67;2.40;;;;;;;;;;4973977;28;20410;-52
2022/06/08 07:19:30;;;;;;;4.03;2.40;;;;;;;;;;4973896;28;20519;-53
2022/06/08 07:21:56;;;;;;;2.23;2.13;;;;;;;;;;4973932;28;20858;-53
2022/06/08 07:24:24;;;;;;;2.60;2.07;;;;;;;;;;4973987;28;20487;-53
2022/06/08 07:26:50;;;;;;;2.43;2.23;;;;;;;;;;4973839;28;20490;-52
2022/06/08 07:29:16;;;;;;;4.40;1.90;;;;;;;;;;4973007;28;20443;-53
2022/06/08 07:31:42;;;;;;;2.63;2.00;;;;;;;;;;4972902;28;20425;-53
2022/06/08 07:34:11;;;;;;;1.80;1.70;;;;;;;;;;4973701;28;20497;-53
2022/06/08 07:36:37;;;;;;;1.90;1.70;;;;;;;;;;4973856;28;20409;-53
2022/06/08 07:39:04;;;;;;;1.93;1.83;;;;;;;;;;4973785;28;20458;-53
2022/06/08 07:41:29;;;;;;;4.77;2.00;;;;;;;;;;4973450;28;20507;-53
2022/06/08 07:43:55;;;;;;;1.83;1.73;;;;;;;;;;4973709;28;20446;-53
2022/06/08 07:46:21;;;;;;;1.60;1.50;;;;;;;;;;4973591;28;20412;-53
2022/06/08 07:51:33;;;;;;;1.77;1.67;;;;;;;;;;4972901;28;20486;-53
2022/06/08 07:53:59;;;;;;;2.10;1.50;;;;;;;;;;4971192;28;20489;-53
2022/06/08 07:56:25;;;;;;;1.80;1.70;;;;;;;;;;4971133;28;20779;-53
2022/06/08 07:58:51;;;;;;;1.73;1.43;;;;;;;;;;4973134;28;20404;-53
2022/06/08 08:01:17;;;;;;;1.87;1.50;;;;;;;;;;4973283;28;21040;-53
2022/06/08 08:03:43;;;;;;;1.50;1.40;;;;;;;;;;4972698;28;20524;-54
2022/06/08 08:06:09;;;;;;;1.70;1.60;;;;;;;;;;4972199;28;20491;-54
2022/06/08 08:08:36;;;;;;;1.60;1.50;;;;;;;;;;4973221;28;20433;-53
2022/06/08 08:11:03;;;;;;;3.73;1.67;;;;;;;;;;4973145;28;20428;-53
2022/06/08 08:13:29;;;;;;;1.97;1.40;;;;;;;;;;4973089;28;20453;-53
2022/06/08 08:15:55;;;;;;;5.23;1.40;;;;;;;;;;4971166;28;20491;-53
2022/06/08 08:18:21;;;;;;;2.17;1.43;;;;;;;;;;4984063;28;20419;-54
2022/06/08 08:20:47;;;;;;;1.27;1.17;;;;;;;;;;4992380;28;20875;-54
2022/06/08 08:23:13;;;;;;;1.40;1.30;;;;;;;;;;4992391;28;20403;-53
2022/06/08 08:25:39;;;;;;;1.60;1.50;;;;;;;;;;4992040;28;20396;-54
2022/06/08 08:28:05;;;;;;;1.93;1.30;;;;;;;;;;4991927;28;20435;-54
2022/06/08 08:30:32;;;;;;;1.73;1.43;;;;;;;;;;4988148;28;20798;-54
2022/06/08 08:32:58;;;;;;;1.37;1.27;;;;;;;;;;4981361;28;20423;-54
2022/06/08 08:35:24;;;;;;;1.40;1.30;;;;;;;;;;4972182;28;20401;-54
2022/06/08 08:37:51;;;;;;;1.20;1.10;;;;;;;;;;4972619;28;20484;-54
2022/06/08 08:40:36;;;;;;;3.47;1.20;;;;;;;;;;4972541;28;20468;-54
2022/06/08 08:43:02;;;;;;;1.20;1.10;;;;;;;;;;4971297;28;20405;-54
2022/06/08 08:45:31;;;;;;;2.40;0.90;;;;;;;;;;4972411;28;20825;-54
2022/06/08 08:48:00;;;;;;;1.30;1.13;;;;;;;;;;4972444;28;20467;-54
2022/06/08 08:50:26;;;;;;;1.60;1.20;;;;;;;;;;4972177;28;20436;-54
2022/06/08 08:52:55;;;;;;;1.20;1.00;;;;;;;;;;4972376;28;20467;-54
2022/06/08 08:55:40;;;;;;;1.43;1.10;;;;;;;;;;4971990;28;20805;-54
2022/06/08 08:58:12;;;;;;;1.00;0.90;;;;;;;;;;4969497;28;20512;-54
2022/06/08 09:00:42;;;;;;;0.83;0.80;;;;;;;;;;4951628;28;20520;-55
2022/06/08 09:03:20;;;;;;;1.13;1.03;;;;;;;;;;4960485;28;20892;-54
2022/06/08 09:05:49;;;;;;;1.97;1.20;;;;;;;;;;4969120;28;20507;-54
2022/06/08 09:08:16;;;;;;;1.37;0.90;;;;;;;;;;4970016;28;20437;-55
2022/06/08 09:10:43;;;;;;;1.00;0.93;;;;;;;;;;4971871;28;20416;-55
2022/06/08 09:13:11;;;;;;;2.27;1.20;;;;;;;;;;4972537;28;20496;-55
2022/06/08 09:15:43;;;;;;;2.00;1.10;;;;;;;;;;4972231;28;20528;-55
2022/06/08 09:18:17;;;;;;;1.33;1.00;;;;;;;;;;4972266;28;20409;-55
2022/06/08 09:20:43;;;;;;;8.10;1.27;;;;;;;;;;4972166;28;20462;-54
2022/06/08 09:23:33;;;;;;;2.23;1.07;;;;;;;;;;4972378;28;20460;-54
2022/06/08 09:26:12;;;;;;;1.60;1.50;;;;;;;;;;4962387;28;20917;-54
2022/06/08 09:28:39;;;;;;;2.33;1.30;;;;;;;;;;4972113;28;20417;-55
2022/06/08 09:31:05;;;;;;;1.73;0.90;;;;;;;;;;4972179;28;20433;-55
2022/06/08 09:33:35;;;;;;;3.23;1.27;;;;;;;;;;4972180;28;20413;-55
2022/06/08 09:36:09;;;;;;;2.20;1.47;;;;;;;;;;4972210;28;20440;-55
2022/06/08 09:38:40;;;;;;;1.37;1.10;;;;;;;;;;4970974;28;20408;-54
2022/06/08 09:41:17;;;;;;;5.43;1.33;;;;;;;;;;4972096;28;20460;-54
2022/06/08 09:43:43;;;;;;;1.70;1.57;;;;;;;;;;4972077;28;20409;-55
2022/06/08 09:46:18;;;;;;;3.10;1.60;;;;;;;;;;4972210;28;20389;-54
2022/06/08 09:51:55;;;;;;;1.33;1.17;;;;;;;;;;4971898;28;20787;-55
2022/06/08 09:54:21;;;;;;;3.10;1.30;;;;;;;;;;4949502;28;20433;-55
2022/06/08 09:56:47;;;;;;;1.20;0.90;;;;;;;;;;4975244;28;20415;-55
2022/06/08 09:59:36;;;;;;;3.20;1.20;;;;;;;;;;4975533;28;20499;-54
2022/06/08 10:02:17;;;;;;;6.13;2.03;;;;;;;;;;4975565;28;20517;-54
2022/06/08 10:04:58;;;;;;;1.50;1.30;;;;;;;;;;4975912;28;20396;-54
2022/06/08 10:07:36;;;;;;;1.60;1.20;;;;;;;;;;4975818;28;20409;-54
2022/06/08 10:10:17;;;;;;;3.60;1.50;;;;;;;;;;4975349;28;20412;-54
2022/06/08 10:12:52;;;;;;;8.07;1.70;;;;;;;;;;4975875;28;20492;-54
2022/06/08 10:15:24;;;;;;;1.83;1.43;;;;;;;;;;4975620;28;20915;-54
2022/06/08 10:18:02;;;;;;;2.47;1.30;;;;;;;;;;4975615;28;20416;-54
2022/06/08 10:20:59;;;;;;;1.47;1.33;;;;;;;;;;4975105;28;20462;-54
2022/06/08 10:23:48;;;;;;;3.63;1.60;;;;;;;;;;4923602;28;20418;-54
2022/06/08 10:26:19;;;;;;;1.73;1.40;;;;;;;;;;4967688;28;20413;-54
2022/06/08 10:28:47;;;;;;;1.70;1.50;;;;;;;;;;4981797;28;20475;-54
2022/06/08 10:31:21;;;;;;;1.97;1.37;;;;;;;;;;4975746;28;20865;-54
2022/06/08 10:33:56;;;;;;;3.10;1.40;;;;;;;;;;4975230;28;20419;-54
2022/06/08 10:36:23;;;;;;;3.03;1.20;;;;;;;;;;4975214;28;20416;-55
2022/06/08 10:38:49;;;;;;;2.30;1.20;;;;;;;;;;4974963;28;20408;-54
2022/06/08 10:44:23;;;;;;;1.60;1.03;;;;;;;;;;4974020;28;20401;-55
2022/06/08 10:46:51;;;;;;;1.70;1.30;;;;;;;;;;4971044;28;20411;-55
2022/06/08 10:49:32;;;;;;;7.13;1.20;;;;;;;;;;4965376;28;20417;-55
2022/06/08 10:52:17;;;;;;;2.07;1.10;;;;;;;;;;4974518;28;20424;-55
2022/06/08 10:54:57;;;;;;;2.03;1.33;;;;;;;;;;4972686;28;20440;-54
2022/06/08 10:57:35;;;;;;;1.73;1.13;;;;;;;;;;4973825;28;20415;-54
2022/06/08 11:00:24;;;;;;;2.60;1.13;;;;;;;;;;4993633;28;20462;-55
2022/06/08 11:03:01;;;;;;;1.50;1.17;;;;;;;;;;4969971;28;20429;-55
2022/06/08 11:05:38;;;;;;;1.47;1.17;;;;;;;;;;4967095;28;20425;-54
2022/06/08 11:08:07;;;;;;;1.20;1.10;;;;;;;;;;4965557;28;20914;-55
2022/06/08 11:10:52;;;;;;;1.53;1.00;;;;;;;;;;4972114;28;20417;-55
2022/06/08 11:13:24;;;;;;;1.80;1.47;;;;;;;;;;4962728;28;21172;-55
2022/06/08 11:15:53;;;;;;;1.40;1.07;;;;;;;;;;4966893;28;20951;-55
2022/06/08 11:18:19;;;;;;;3.20;1.40;;;;;;;;;;4974387;28;20416;-54
2022/06/08 11:20:48;;;;;;;2.80;1.30;;;;;;;;;;4973851;28;20448;-54
2022/06/08 11:23:21;;;;;;;2.20;1.30;;;;;;;;;;4974448;28;20405;-54
2022/06/08 11:26:07;;;;;;;3.57;1.50;;;;;;;;;;4974175;28;20408;-54
2022/06/08 11:28:33;;;;;;;1.67;1.00;;;;;;;;;;4940295;28;20408;-54
2022/06/08 11:31:01;;;;;;;3.63;1.70;;;;;;;;;;4957611;28;20502;-54
2022/06/08 11:33:45;;;;;;;3.37;1.50;;;;;;;;;;4953507;29;20477;-54
2022/06/08 11:36:16;;;;;;;4.43;1.30;;;;;;;;;;4954823;29;20486;-54
2022/06/08 11:38:48;;;;;;;1.97;1.60;;;;;;;;;;4954632;29;20460;-54
2022/06/08 11:41:20;;;;;;;1.77;1.33;;;;;;;;;;4954056;29;20469;-54
2022/06/08 11:43:47;;;;;;;1.80;1.53;;;;;;;;;;4970998;28;21010;-54
2022/06/08 11:46:32;;;;;;;5.30;1.90;;;;;;;;;;4973670;28;20440;-54
2022/06/08 11:48:58;;;;;;;1.47;1.37;;;;;;;;;;4973851;28;20397;-54
2022/06/08 11:51:32;;;;;;;3.27;1.77;;;;;;;;;;4973111;28;20994;-54
2022/06/08 11:53:58;;;;;;;3.33;2.00;;;;;;;;;;4973319;28;20431;-54
2022/06/08 11:56:26;;;;;;;3.93;1.90;;;;;;;;;;4973746;28;20493;-54
2022/06/08 11:58:53;;;;;;;4.60;2.07;;;;;;;;;;4973664;28;20396;-54
2022/06/08 12:01:28;;;;;;;4.20;2.00;;;;;;;;;;4973385;28;20998;-54
2022/06/08 12:04:00;;;;;;;5.50;2.03;;;;;;;;;;4973366;28;20407;-54
2022/06/08 12:06:30;;;;;;;3.73;2.23;;;;;;;;;;4973166;28;20461;-54
2022/06/08 12:08:56;;;;;;;2.10;1.70;;;;;;;;;;4980705;28;20436;-54
2022/06/08 12:11:24;;;;;;;3.50;2.10;;;;;;;;;;4992602;28;20881;-54
2022/06/08 12:14:01;;;;;;;4.00;2.63;;;;;;;;;;4992978;28;20806;-54
2022/06/08 12:16:32;;;;;;;9.37;2.13;;;;;;;;;;4992732;28;20906;-54
2022/06/08 12:19:04;;;;;;;2.50;2.30;;;;;;;;;;4992181;28;20443;-54
2022/06/08 12:21:35;;;;;;;8.70;2.73;;;;;;;;;;4992199;28;20413;-54
2022/06/08 12:24:03;;;;;;;5.63;2.40;;;;;;;;;;4972567;28;20480;-53
2022/06/08 12:26:38;;;;;;;5.13;2.40;;;;;;;;;;4972346;28;20408;-53
2022/06/08 12:29:22;;;;;;;6.00;2.70;;;;;;;;;;4973018;28;20359;-53
2022/06/08 12:31:58;;;;;;;12.03;3.30;;;;;;;;;;4972781;28;20426;-53
2022/06/08 12:34:35;;;;;;;5.13;3.17;;;;;;;;;;4973279;28;20379;-53
2022/06/08 12:37:20;;;;;;;3.57;3.10;;;;;;;;;;4973289;28;20867;-53
2022/06/08 12:39:46;;;;;;;12.27;2.77;;;;;;;;;;4972667;28;20440;-53
2022/06/08 12:42:29;;;;;;;4.17;3.10;;;;;;;;;;4972582;28;20506;-53
2022/06/08 12:44:56;;;;;;;3.30;3.00;;;;;;;;;;4972814;28;20888;-53
2022/06/08 12:47:26;;;;;;;4.63;3.13;;;;;;;;;;4973155;28;20439;-53
2022/06/08 12:50:15;;;;;;;14.77;3.67;;;;;;;;;;4971561;28;20451;-52
2022/06/08 12:52:41;;;;;;;3.93;3.40;;;;;;;;;;4964999;28;20433;-53
2022/06/08 12:55:13;;;;;;;3.93;3.30;;;;;;;;;;4972823;28;20436;-53
2022/06/08 12:57:42;;;;;;;5.33;3.60;;;;;;;;;;4972771;28;20420;-53
2022/06/08 13:00:09;;;;;;;9.83;3.20;;;;;;;;;;4972806;28;20545;-53
2022/06/08 13:02:37;;;;;;;4.20;3.70;;;;;;;;;;4972541;28;20429;-53
2022/06/08 13:05:05;;;;;;;5.30;3.37;;;;;;;;;;4972705;28;20388;-53
2022/06/08 13:07:33;;;;;;;3.47;3.03;;;;;;;;;;4972914;28;20385;-53
2022/06/08 13:10:00;;;;;;;6.80;3.37;;;;;;;;;;4972634;28;20557;-53
2022/06/08 13:12:36;;;;;;;8.00;2.90;;;;;;;;;;4972395;28;20432;-51
2022/06/08 13:15:02;;;;;;;6.57;3.70;;;;;;;;;;4972590;28;20424;-53
2022/06/08 13:17:32;;;;;;;7.90;3.23;;;;;;;;;;4972598;28;20410;-53
2022/06/08 13:19:58;;;;;;;8.00;3.63;;;;;;;;;;4972579;28;20829;-53
2022/06/08 13:22:26;;;;;;;7.60;3.57;;;;;;;;;;4972444;28;20436;-53
2022/06/08 13:24:52;;;;;;;4.30;3.60;;;;;;;;;;4972623;28;20863;-53
2022/06/08 13:27:19;;;;;;;5.00;3.93;;;;;;;;;;4975404;28;20430;-53
2022/06/08 13:29:45;;;;;;;4.40;3.90;;;;;;;;;;4977207;28;20510;-53
2022/06/08 13:32:15;;;;;;;7.40;4.03;;;;;;;;;;4976574;28;20754;-53
2022/06/08 13:34:41;;;;;;;7.77;4.17;;;;;;;;;;4976321;28;20903;-53
2022/06/08 13:37:18;;;;;;;7.63;3.83;;;;;;;;;;4976492;28;20456;-53
2022/06/08 13:39:44;;;;;;;5.90;4.00;;;;;;;;;;4976394;28;20467;-53
2022/06/08 13:42:16;;;;;;;5.20;4.17;;;;;;;;;;4975747;28;21036;-53
2022/06/08 13:44:44;;;;;;;7.17;4.70;;;;;;;;;;4976055;28;20389;-53
2022/06/08 13:47:15;;;;;;;5.20;3.27;;;;;;;;;;4975957;28;20391;-53
2022/06/08 13:49:44;;;;;;;4.70;3.70;;;;;;;;;;4975572;28;20483;-53
2022/06/08 13:52:12;;;;;;;3.37;3.07;;;;;;;;;;4974573;28;20429;-53
2022/06/08 13:54:40;;;;;;;3.40;3.10;;;;;;;;;;4974855;28;20436;-53
2022/06/08 13:57:08;;;;;;;4.23;3.40;;;;;;;;;;4975960;28;20405;-53
2022/06/08 13:59:35;;;;;;;4.10;3.63;;;;;;;;;;4975784;28;20466;-52
2022/06/08 14:02:01;;;;;;;9.90;3.80;;;;;;;;;;4975075;28;20414;-53
2022/06/08 14:04:30;;;;;;;5.63;3.10;;;;;;;;;;4974298;28;20413;-53
2022/06/08 14:15:31;;;;;;;4.80;2.80;;;;;;;;;;4915724;29;20427;-53
2022/06/08 14:17:57;;;;;;;8.60;2.97;;;;;;;;;;4915810;29;20386;-53
2022/06/08 14:20:23;;;;;;;3.83;3.20;;;;;;;;;;4933350;28;20497;-53
2022/06/08 14:22:49;;;;;;;5.00;3.37;;;;;;;;;;4955830;29;20427;-53
2022/06/08 14:25:16;;;;;;;4.50;2.80;;;;;;;;;;4956181;28;20428;-53
2022/06/08 14:27:42;;;;;;;3.73;3.27;;;;;;;;;;4992682;28;20401;-52
2022/06/08 14:30:10;;;;;;;6.20;3.60;;;;;;;;;;4994496;28;20843;-52
2022/06/08 14:32:41;;;;;;;4.50;2.67;;;;;;;;;;4992659;28;20506;-51
2022/06/08 14:35:12;;;;;;;5.20;2.80;;;;;;;;;;4994736;28;20381;-51
2022/06/08 14:37:38;;;;;;;4.13;2.40;;;;;;;;;;4994663;28;20411;-52
2022/06/08 14:40:10;;;;;;;8.70;3.03;;;;;;;;;;4994397;28;20441;-53
2022/06/08 14:42:36;;;;;;;5.10;2.67;;;;;;;;;;4993781;28;20441;-50
2022/06/08 14:45:03;;;;;;;6.60;2.70;;;;;;;;;;4994429;28;20432;-52
2022/06/08 14:47:29;;;;;;;2.53;2.33;;;;;;;;;;4988791;28;20449;-51
2022/06/08 14:49:56;;;;;;;6.00;2.47;;;;;;;;;;4973274;28;20470;-53
2022/06/08 14:52:24;;;;;;;3.50;3.20;;;;;;;;;;4974613;28;20432;-53
2022/06/08 14:54:50;;;;;;;5.50;2.47;;;;;;;;;;4974427;28;20436;-53
2022/06/08 14:57:25;;;;;;;4.50;2.70;;;;;;;;;;4974638;28;20407;-51
2022/06/08 14:59:52;;;;;;;6.30;2.33;;;;;;;;;;4974600;28;20481;-52
2022/06/08 15:02:18;;;;;;;2.90;2.20;;;;;;;;;;4974492;28;20883;-51
2022/06/08 15:04:44;;;;;;;5.90;2.50;;;;;;;;;;4974483;28;20400;-51
2022/06/08 15:07:10;;;;;;;5.90;2.90;;;;;;;;;;4974594;28;20380;-52